createdAt,value
2018-11-13T00:00:59.986Z,97466.07
2018-11-13T00:03:29.340Z,97462.77
2018-11-13T00:05:58.884Z,97459.90
2018-11-13T00:08:28.392Z,97459.77
2018-11-13T00:10:58.181Z,97455.51
2018-11-13T00:13:28.226Z,97452.94
2018-11-13T00:15:58.575Z,97455.45
2018-11-13T00:18:28.265Z,97452.12
2018-11-13T00:20:58.339Z,97446.39
2018-11-13T00:23:28.467Z,97445.52
2018-11-13T00:25:58.462Z,97444.47
2018-11-13T00:28:30.538Z,97443.20
2018-11-13T00:30:59.853Z,97447.77
2018-11-13T00:33:29.224Z,97450.30
2018-11-13T00:35:58.664Z,97451.25
2018-11-13T00:38:28.719Z,97447.77
2018-11-13T00:40:58.795Z,97446.59
2018-11-13T00:43:28.571Z,97453.53
2018-11-13T00:45:58.778Z,97452.50
2018-11-13T00:48:29.041Z,97453.27
2018-11-13T00:50:59.199Z,97459.36
2018-11-13T00:53:28.588Z,97452.63
2018-11-13T00:55:58.935Z,97452.63
2018-11-13T00:58:28.864Z,97453.53
2018-11-13T01:00:58.641Z,97452.81
2018-11-13T01:03:28.731Z,97459.33
2018-11-13T01:05:58.849Z,97459.72
2018-11-13T01:08:28.719Z,97464.72
2018-11-13T01:10:58.732Z,97454.64
2018-11-13T01:13:29.349Z,97457.93
2018-11-13T01:15:58.739Z,97452.94
2018-11-13T01:18:28.697Z,97453.13
2018-11-13T01:20:58.717Z,97450.16
2018-11-13T01:23:28.822Z,97449.82
2018-11-13T01:25:59.014Z,97450.73
2018-11-13T01:28:28.780Z,97447.25
2018-11-13T01:30:58.847Z,97447.73
2018-11-13T01:33:28.712Z,97444.92
2018-11-13T01:35:58.704Z,97449.56
2018-11-13T01:38:28.716Z,97444.83
2018-11-13T01:40:58.732Z,97450.61
2018-11-13T01:43:28.852Z,97444.66
2018-11-13T01:45:58.724Z,97445.91
2018-11-13T01:48:28.841Z,97445.47
2018-11-13T01:50:58.818Z,97448.95
2018-11-13T01:53:28.840Z,97444.88
2018-11-13T01:55:58.904Z,97436.41
2018-11-13T01:58:28.916Z,97432.18
2018-11-13T02:00:59.191Z,97432.05
2018-11-13T02:03:28.902Z,97432.87
2018-11-13T02:05:59.013Z,97433.88
2018-11-13T02:08:28.955Z,97427.93
2018-11-13T02:10:59.064Z,97424.63
2018-11-13T02:13:29.002Z,97423.23
2018-11-13T02:15:59.026Z,97421.53
2018-11-13T02:18:29.069Z,97426.92
2018-11-13T02:20:59.180Z,97421.89
2018-11-13T02:23:29.198Z,97418.45
2018-11-13T02:25:59.186Z,97419.37
2018-11-13T02:28:29.178Z,97410.89
2018-11-13T02:31:00.688Z,97409.29
2018-11-13T02:33:30.550Z,97416.70
2018-11-13T02:35:59.747Z,97426.73
2018-11-13T02:38:29.323Z,97420.44
2018-11-13T02:40:59.218Z,97419.53
2018-11-13T02:43:29.336Z,97417.55
2018-11-13T02:45:59.312Z,97420.19
2018-11-13T02:48:29.304Z,97414.67
2018-11-13T02:50:59.266Z,97415.41
2018-11-13T02:53:29.300Z,97416.19
2018-11-13T02:55:59.409Z,97417.01
2018-11-13T02:58:29.412Z,97412.31
2018-11-13T03:00:59.404Z,97415.23
2018-11-13T03:03:29.426Z,97412.45
2018-11-13T03:05:59.441Z,97415.84
2018-11-13T03:08:29.457Z,97423.26
2018-11-13T03:10:59.442Z,97420.78
2018-11-13T03:13:29.443Z,97422.48
2018-11-13T03:15:59.595Z,97412.66
2018-11-13T03:18:29.471Z,97406.27
2018-11-13T03:20:59.545Z,97406.37
2018-11-13T03:23:29.546Z,97392.16
2018-11-13T03:25:59.623Z,97399.77
2018-11-13T03:28:29.694Z,97413.67
2018-11-13T03:30:59.715Z,97414.84
2018-11-13T03:33:29.584Z,97410.40
2018-11-13T03:35:59.739Z,97413.70
2018-11-13T03:38:29.661Z,97403.53
2018-11-13T03:40:59.699Z,97398.84
2018-11-13T03:43:29.716Z,97399.09
2018-11-13T03:45:59.762Z,97401.66
2018-11-13T03:48:29.799Z,97408.48
2018-11-13T03:50:59.774Z,97399.31
2018-11-13T03:53:29.810Z,97399.61
2018-11-13T03:55:59.822Z,97406.65
2018-11-13T03:58:29.881Z,97414.20
2018-11-13T04:00:59.825Z,97408.34
2018-11-13T04:03:29.864Z,97421.07
2018-11-13T04:05:59.923Z,97419.56
2018-11-13T04:08:29.918Z,97421.01
2018-11-13T04:10:59.951Z,97421.48
2018-11-13T04:13:29.925Z,97419.09
2018-11-13T04:15:59.977Z,97423.73
2018-11-13T04:18:29.935Z,97426.94
2018-11-13T04:21:00.208Z,97436.18
2018-11-13T04:23:30.009Z,97437.78
2018-11-13T04:26:00.264Z,97432.84
2018-11-13T04:28:30.129Z,97431.28
2018-11-13T04:31:00.173Z,97442.23
2018-11-13T04:33:30.181Z,97446.25
2018-11-13T04:36:00.265Z,97454.50
2018-11-13T04:38:30.235Z,97458.62
2018-11-13T04:41:00.252Z,97458.18
2018-11-13T04:43:30.209Z,97439.87
2018-11-13T04:46:00.354Z,97451.88
2018-11-13T04:48:30.313Z,97454.50
2018-11-13T04:51:00.363Z,97457.02
2018-11-13T04:53:30.396Z,97457.02
2018-11-13T04:56:00.409Z,97460.75
2018-11-13T04:58:30.487Z,97468.80
2018-11-13T05:01:00.556Z,97473.44
2018-11-13T05:03:30.569Z,97483.56
2018-11-13T05:06:00.558Z,97487.47
2018-11-13T05:08:30.577Z,97493.39
2018-11-13T05:11:00.589Z,97496.73
2018-11-13T05:13:30.707Z,97496.83
2018-11-13T05:16:01.985Z,97503.59
2018-11-13T05:18:31.204Z,97500.26
2018-11-13T05:21:00.715Z,97492.60
2018-11-13T05:23:30.722Z,97501.08
2018-11-13T05:26:00.708Z,97500.73
2018-11-13T05:28:30.726Z,97505.02
2018-11-13T05:31:00.762Z,97521.00
2018-11-13T05:33:30.738Z,97508.92
2018-11-13T05:36:00.770Z,97517.74
2018-11-13T05:38:30.791Z,97522.25
2018-11-13T05:41:00.894Z,97523.52
2018-11-13T05:43:30.902Z,97535.09
2018-11-13T05:46:00.940Z,97548.02
2018-11-13T05:48:30.978Z,97554.77
2018-11-13T05:51:00.971Z,97567.93
2018-11-13T05:53:30.978Z,97578.00
2018-11-13T05:56:00.957Z,97588.95
2018-11-13T05:58:31.046Z,97581.00
2018-11-13T06:01:01.082Z,97585.70
2018-11-13T06:03:31.004Z,97589.00
2018-11-13T06:06:01.050Z,97592.67
2018-11-13T06:08:31.193Z,97584.93
2018-11-13T06:11:00.952Z,97581.78
2018-11-13T06:13:31.173Z,97582.48
2018-11-13T06:16:01.116Z,97579.78
2018-11-13T06:18:31.172Z,97585.44
2018-11-13T06:21:01.251Z,97576.29
2018-11-13T06:23:31.182Z,97584.87
2018-11-13T06:26:01.240Z,97587.39
2018-11-13T06:28:31.314Z,97591.16
2018-11-13T06:31:01.346Z,97612.23
2018-11-13T06:33:31.642Z,97615.08
2018-11-13T06:36:01.391Z,97602.97
2018-11-13T06:38:31.607Z,97601.82
2018-11-13T06:41:01.761Z,97612.70
2018-11-13T06:43:31.748Z,97610.81
2018-11-13T06:46:01.352Z,97611.64
2018-11-13T06:48:31.486Z,97612.80
2018-11-13T06:51:01.484Z,97616.57
2018-11-13T06:55:18.130Z,97616.57
2018-11-13T06:57:47.843Z,97622.53
2018-11-13T07:00:17.202Z,97632.35
2018-11-13T07:02:46.560Z,97634.28
2018-11-13T07:05:16.827Z,97637.72
2018-11-13T07:07:46.514Z,97636.99
2018-11-13T07:13:01.750Z,97656.52
2018-11-13T07:15:32.352Z,97651.56
2018-11-13T07:18:03.897Z,97650.45
2018-11-13T07:20:34.361Z,97650.79
2018-11-13T07:23:03.551Z,97660.86
2018-11-13T07:25:32.964Z,97657.53
2018-11-13T07:28:02.123Z,97666.14
2018-11-13T07:30:31.889Z,97672.99
2018-11-13T07:33:01.965Z,97668.77
2018-11-13T07:35:31.883Z,97679.09
2018-11-13T07:38:01.913Z,97678.95
2018-11-13T07:40:31.941Z,97687.91
2018-11-13T07:43:01.919Z,97679.09
2018-11-13T07:45:32.267Z,97685.59
2018-11-13T07:48:01.986Z,97686.66
2018-11-13T07:50:32.003Z,97681.84
2018-11-13T07:53:02.031Z,97680.34
2018-11-13T07:55:32.143Z,97697.36
2018-11-13T07:58:02.337Z,97707.48
2018-11-13T08:00:32.060Z,97707.77
2018-11-13T08:06:13.070Z,97707.58
2018-11-13T08:08:42.223Z,97712.11
2018-11-13T08:11:11.470Z,97717.94
2018-11-13T08:13:40.814Z,97724.11
2018-11-13T08:16:10.025Z,97729.73
2018-11-13T08:18:39.352Z,97740.59
2018-11-13T08:21:08.695Z,97744.85
2018-11-13T08:23:37.815Z,97749.13
2018-11-13T08:26:07.394Z,97760.78
2018-11-13T08:28:36.640Z,97767.19
2018-11-13T08:31:06.502Z,97767.69
2018-11-13T08:33:36.064Z,97770.41
2018-11-13T08:36:05.342Z,97775.11
2018-11-13T08:38:34.546Z,97787.48
2018-11-13T08:41:03.835Z,97786.11
2018-11-13T08:43:33.159Z,97786.47
2018-11-13T08:46:02.506Z,97787.39
2018-11-13T08:48:32.473Z,97791.86
2018-11-13T08:51:02.494Z,97798.50
2018-11-13T08:53:32.656Z,97801.08
2018-11-13T08:56:02.587Z,97798.08
2018-11-13T08:58:32.726Z,97802.55
2018-11-13T09:01:02.707Z,97799.44
2018-11-13T09:03:32.669Z,97802.75
2018-11-13T09:06:02.764Z,97797.61
2018-11-13T09:08:32.705Z,97810.91
2018-11-13T09:11:03.054Z,97812.95
2018-11-13T09:13:32.851Z,97818.23
2018-11-13T09:16:02.886Z,97827.06
2018-11-13T09:18:32.851Z,97834.00
2018-11-13T09:21:02.903Z,97834.16
2018-11-13T09:23:32.912Z,97844.35
2018-11-13T09:26:02.924Z,97848.47
2018-11-13T09:28:32.980Z,97844.23
2018-11-13T09:31:03.391Z,97835.93
2018-11-13T09:33:32.947Z,97846.95
2018-11-13T09:36:02.931Z,97843.83
2018-11-13T09:38:32.952Z,97840.61
2018-11-13T09:41:03.054Z,97851.63
2018-11-13T09:43:32.940Z,97848.86
2018-11-13T09:46:03.112Z,97864.59
2018-11-13T09:48:33.185Z,97872.39
2018-11-13T09:51:03.104Z,97863.30
2018-11-13T09:53:33.178Z,97865.27
2018-11-13T09:56:03.117Z,97868.45
2018-11-13T09:58:33.200Z,97884.27
2018-11-13T10:01:03.478Z,97878.86
2018-11-13T10:03:33.950Z,97883.57
2018-11-13T10:06:03.828Z,97892.41
2018-11-13T10:08:33.328Z,97891.16
2018-11-13T10:11:03.479Z,97897.22
2018-11-13T10:13:33.462Z,97895.70
2018-11-13T10:16:03.505Z,97890.73
2018-11-13T10:18:33.518Z,97886.59
2018-11-13T10:21:03.613Z,97893.38
2018-11-13T10:23:33.514Z,97911.22
2018-11-13T10:26:03.792Z,97910.47
2018-11-13T10:28:33.489Z,97911.04
2018-11-13T10:31:03.536Z,97912.48
2018-11-13T10:33:33.583Z,97914.36
2018-11-13T10:36:03.536Z,97908.29
2018-11-13T10:38:33.643Z,97900.88
2018-11-13T10:41:03.792Z,97907.49
2018-11-13T10:43:33.600Z,97893.98
2018-11-13T10:46:03.662Z,97894.48
2018-11-13T10:48:33.698Z,97891.59
2018-11-13T10:51:03.691Z,97895.45
2018-11-13T10:53:33.959Z,97886.22
2018-11-13T10:56:03.792Z,97880.91
2018-11-13T10:58:33.733Z,97887.75
2018-11-13T11:01:09.264Z,97881.76
2018-11-13T11:03:44.516Z,97886.27
2018-11-13T11:06:13.747Z,97895.72
2018-11-13T11:08:43.793Z,97888.22
2018-11-13T11:11:13.126Z,97884.11
2018-11-13T11:13:42.370Z,97892.86
2018-11-13T11:16:11.624Z,97888.91
2018-11-13T11:18:40.835Z,97882.61
2018-11-13T11:21:10.038Z,97899.00
2018-11-13T11:23:39.334Z,97903.45
2018-11-13T11:26:09.172Z,97905.25
2018-11-13T11:28:38.519Z,97902.34
2018-11-13T11:31:07.867Z,97909.05
2018-11-13T11:33:37.112Z,97906.80
2018-11-13T11:36:06.353Z,97919.42
2018-11-13T11:38:35.705Z,97925.66
2018-11-13T11:41:05.758Z,97935.64
2018-11-13T11:43:35.004Z,97936.02
2018-11-13T11:46:04.247Z,97930.50
2018-11-13T11:48:34.207Z,97933.44
2018-11-13T11:51:04.297Z,97945.27
2018-11-13T11:53:33.702Z,97939.39
2018-11-13T11:56:02.888Z,97952.02
2018-11-13T11:58:32.104Z,97940.12
2018-11-13T12:01:01.467Z,97934.21
2018-11-13T12:03:30.766Z,97933.84
2018-11-13T12:06:00.069Z,97937.25
2018-11-13T12:08:29.322Z,97937.65
2018-11-13T12:10:58.601Z,97931.23
2018-11-13T12:13:27.766Z,97935.85
2018-11-13T12:15:57.098Z,97932.45
2018-11-13T12:18:26.333Z,97918.02
2018-11-13T12:20:55.654Z,97906.59
2018-11-13T12:23:24.869Z,97899.85
2018-11-13T12:25:54.135Z,97901.16
2018-11-13T12:28:23.290Z,97899.88
2018-11-13T12:30:52.501Z,97893.97
2018-11-13T12:33:21.888Z,97892.33
2018-11-13T12:35:51.154Z,97900.84
2018-11-13T12:38:20.532Z,97895.34
2018-11-13T12:40:49.789Z,97893.60
2018-11-13T12:43:19.525Z,97893.54
2018-11-13T12:45:49.384Z,97893.48
2018-11-13T12:48:19.148Z,97907.87
2018-11-13T12:50:54.030Z,97909.50
2018-11-13T12:53:23.954Z,97912.02
2018-11-13T12:55:53.806Z,97914.58
2018-11-13T12:58:23.513Z,97912.54
2018-11-13T13:00:53.475Z,97909.97
2018-11-13T13:03:23.444Z,97915.48
2018-11-13T13:05:53.220Z,97923.93
2018-11-13T13:08:23.178Z,97923.93
2018-11-13T13:10:52.901Z,97929.78
2018-11-13T13:13:22.833Z,97935.72
2018-11-13T13:15:52.712Z,97939.96
2018-11-13T13:18:22.665Z,97939.59
2018-11-13T13:20:52.425Z,97932.45
2018-11-13T13:23:22.323Z,97938.39
2018-11-13T13:25:52.239Z,97942.16
2018-11-13T13:28:22.107Z,97946.41
2018-11-13T13:30:52.066Z,97939.99
2018-11-13T13:33:22.112Z,97948.41
2018-11-13T13:36:00.304Z,97952.95
2018-11-13T13:38:31.224Z,97960.20
2018-11-13T13:41:02.358Z,97962.66
2018-11-13T13:43:32.859Z,97971.05
2018-11-13T13:46:02.733Z,97981.23
2018-11-13T13:48:32.754Z,97982.87
2018-11-13T13:51:02.690Z,97987.51
2018-11-13T13:53:32.379Z,97992.95
2018-11-13T13:56:02.176Z,97987.44
2018-11-13T13:58:32.192Z,98001.33
2018-11-13T14:01:02.454Z,97993.67
2018-11-13T14:03:32.277Z,98020.31
2018-11-13T14:06:02.065Z,98015.61
2018-11-13T14:08:31.851Z,98019.84
2018-11-13T14:11:01.673Z,98018.98
2018-11-13T14:13:31.834Z,98024.05
2018-11-13T14:16:01.753Z,98036.77
2018-11-13T14:18:31.660Z,98039.67
2018-11-13T14:21:01.776Z,98030.76
2018-11-13T14:23:31.518Z,98035.83
2018-11-13T14:26:01.284Z,98045.15
2018-11-13T14:28:30.999Z,98044.35
2018-11-13T14:31:00.821Z,98049.42
2018-11-13T14:33:30.811Z,98052.77
2018-11-13T14:36:00.830Z,98044.28
2018-11-13T14:38:30.728Z,98046.67
2018-11-13T14:41:00.632Z,98044.92
2018-11-13T14:43:30.670Z,98043.19
2018-11-13T14:46:00.568Z,98049.81
2018-11-13T14:48:30.481Z,98048.19
2018-11-13T14:51:00.331Z,98053.16
2018-11-13T14:53:30.375Z,98047.64
2018-11-13T14:56:00.120Z,98074.64
2018-11-13T14:58:29.964Z,98094.02
2018-11-13T15:00:59.844Z,98085.14
2018-11-13T15:03:29.627Z,98070.75
2018-11-13T15:05:59.469Z,98091.84
2018-11-13T15:08:29.368Z,98111.25
2018-11-13T15:10:59.284Z,98099.30
2018-11-13T15:13:29.208Z,98102.55
2018-11-13T15:15:59.196Z,98103.27
2018-11-13T15:18:29.111Z,98099.81
2018-11-13T15:20:59.085Z,98092.64
2018-11-13T15:23:28.979Z,98095.93
2018-11-13T15:25:58.922Z,98097.16
2018-11-13T15:28:28.905Z,98101.83
2018-11-13T15:30:58.734Z,98102.19
2018-11-13T15:33:28.457Z,98129.61
2018-11-13T15:35:58.543Z,98137.92
2018-11-13T15:38:28.355Z,98150.48
2018-11-13T15:40:58.180Z,98155.86
2018-11-13T15:43:28.226Z,98145.64
2018-11-13T15:45:57.991Z,98140.48
2018-11-13T15:48:27.833Z,98141.23
2018-11-13T15:50:57.693Z,98137.34
2018-11-13T15:53:27.561Z,98160.51
2018-11-13T15:55:57.529Z,98164.66
2018-11-13T15:58:27.529Z,98158.69
2018-11-13T16:00:57.582Z,98162.00
2018-11-13T16:03:31.510Z,98176.21
2018-11-13T16:06:01.692Z,98165.20
2018-11-13T16:08:31.582Z,98165.80
2018-11-13T16:11:01.637Z,98174.29
2018-11-13T16:13:31.526Z,98175.12
2018-11-13T16:16:01.546Z,98181.01
2018-11-13T16:18:31.873Z,98189.31
2018-11-13T16:21:01.860Z,98193.46
2018-11-13T16:23:31.853Z,98195.91
2018-11-13T16:26:01.740Z,98197.52
2018-11-13T16:28:31.639Z,98199.92
2018-11-13T16:31:01.508Z,98210.87
2018-11-13T16:33:31.487Z,98205.72
2018-11-13T16:36:01.294Z,98203.89
2018-11-13T16:38:31.351Z,98212.27
2018-11-13T16:41:01.302Z,98221.91
2018-11-13T16:43:31.088Z,98217.15
2018-11-13T16:46:00.983Z,98215.41
2018-11-13T16:48:30.809Z,98217.05
2018-11-13T16:51:00.764Z,98210.24
2018-11-13T16:53:30.572Z,98221.20
2018-11-13T16:56:03.035Z,98219.45
2018-11-13T16:58:33.155Z,98212.68
2018-11-13T17:01:03.055Z,98214.30
2018-11-13T17:03:32.846Z,98223.16
2018-11-13T17:06:02.851Z,98216.30
2018-11-13T17:08:32.682Z,98218.78
2018-11-13T17:11:02.648Z,98213.27
2018-11-13T17:13:32.632Z,98215.67
2018-11-13T17:16:02.695Z,98218.11
2018-11-13T17:18:33.550Z,98213.39
2018-11-13T17:21:03.360Z,98215.34
2018-11-13T17:23:33.247Z,98214.52
2018-11-13T17:26:03.179Z,98216.86
2018-11-13T17:28:33.160Z,98227.33
2018-11-13T17:31:03.232Z,98223.43
2018-11-13T17:33:33.048Z,98228.73
2018-11-13T17:36:03.018Z,98230.34
2018-11-13T17:38:33.223Z,98234.04
2018-11-13T17:41:03.284Z,98226.69
2018-11-13T17:43:33.415Z,98226.11
2018-11-13T17:46:03.355Z,98231.51
2018-11-13T17:48:33.194Z,98230.93
2018-11-13T17:51:02.948Z,98232.43
2018-11-13T17:53:32.748Z,98228.88
2018-11-13T17:56:02.387Z,98227.47
2018-11-13T17:58:32.288Z,98234.50
2018-11-13T18:01:02.488Z,98239.91
2018-11-13T18:03:32.425Z,98232.60
2018-11-13T18:06:02.497Z,98237.61
2018-11-13T18:08:32.588Z,98243.79
2018-11-13T18:11:02.840Z,98242.42
2018-11-13T18:13:32.880Z,98246.55
2018-11-13T18:16:03.127Z,98241.27
2018-11-13T18:18:33.317Z,98242.34
2018-11-13T18:21:03.686Z,98245.49
2018-11-13T18:23:34.361Z,98249.17
2018-11-13T18:26:05.620Z,98252.48
2018-11-13T18:28:36.065Z,98250.96
2018-11-13T18:31:06.845Z,98253.23
2018-11-13T18:33:37.030Z,98255.11
2018-11-13T18:36:07.969Z,98256.15
2018-11-13T18:38:38.803Z,98259.14
2018-11-13T18:41:09.305Z,98260.17
2018-11-13T18:43:39.807Z,98265.89
2018-11-13T18:46:10.375Z,98271.27
2018-11-13T18:48:40.853Z,98272.53
2018-11-13T18:51:11.267Z,98280.77
2018-11-13T18:53:41.639Z,98291.58
2018-11-13T18:56:11.936Z,98285.80
2018-11-13T18:58:42.655Z,98286.85
2018-11-13T19:01:13.083Z,98289.20
2018-11-13T19:03:43.596Z,98291.56
2018-11-13T19:06:15.021Z,98291.12
2018-11-13T19:08:46.389Z,98288.47
2018-11-13T19:14:26.924Z,98281.76
2018-11-13T19:16:57.491Z,98280.34
2018-11-13T19:19:27.908Z,98286.20
2018-11-13T19:21:57.796Z,98280.22
2018-11-13T19:24:27.740Z,98280.55
2018-11-13T19:27:02.623Z,98278.55
2018-11-13T19:29:34.014Z,98279.08
2018-11-13T19:32:04.967Z,98279.73
2018-11-13T19:34:35.193Z,98279.61
2018-11-13T19:37:05.573Z,98283.72
2018-11-13T19:39:35.435Z,98287.83
2018-11-13T19:42:07.053Z,98285.18
2018-11-13T19:44:37.907Z,98292.63
2018-11-13T19:47:08.596Z,98292.46
2018-11-13T19:49:38.929Z,98293.92
2018-11-13T19:52:11.575Z,98299.94
2018-11-13T19:54:41.805Z,98302.20
2018-11-13T20:31:06.488Z,98306.34
2018-11-13T20:33:38.115Z,98306.97
2018-11-13T20:36:07.897Z,98318.66
2018-11-13T20:38:37.796Z,98312.20
2018-11-13T20:41:08.048Z,98319.62
2018-11-13T20:43:39.685Z,98319.94
2018-11-13T20:46:10.196Z,98316.79
2018-11-13T20:48:40.211Z,98315.39
2018-11-13T20:51:11.871Z,98325.33
2018-11-13T20:53:42.382Z,98317.46
2018-11-13T20:56:13.277Z,98320.54
2018-11-13T20:58:44.027Z,98324.56
2018-11-13T21:01:15.294Z,98326.94
2018-11-13T21:03:46.042Z,98335.58
2018-11-13T21:06:16.525Z,98327.88
2018-11-13T21:08:47.524Z,98323.78
2018-11-13T21:11:18.516Z,98331.16
2018-11-13T21:13:49.623Z,98333.68
2018-11-13T21:16:21.035Z,98336.69
2018-11-13T21:18:52.560Z,98337.14
2018-11-13T21:21:23.177Z,98331.66
2018-11-13T21:23:53.693Z,98333.39
2018-11-13T21:26:24.124Z,98334.47
2018-11-13T21:28:54.955Z,98337.16
2018-11-13T21:31:25.462Z,98344.88
2018-11-13T21:33:56.153Z,98341.72
2018-11-13T21:36:26.707Z,98342.19
2018-11-13T21:38:57.360Z,98342.81
2018-11-13T21:41:28.451Z,98338.96
2018-11-13T21:46:28.775Z,98346.59
2018-11-13T21:48:58.425Z,98342.18
2018-11-13T21:51:28.011Z,98341.85
2018-11-13T21:53:58.854Z,98344.52
2018-11-13T21:56:28.449Z,98345.63
2018-11-13T21:58:58.954Z,98341.52
2018-11-13T22:01:28.560Z,98354.25
2018-11-13T22:03:58.124Z,98353.60
2018-11-13T22:06:27.828Z,98349.52
2018-11-13T22:08:57.206Z,98347.77
2018-11-13T22:11:26.568Z,98357.98
2018-11-13T22:13:55.820Z,98357.33
2018-11-13T22:16:25.125Z,98355.46
2018-11-13T22:18:54.527Z,98353.71
2018-11-13T22:21:23.843Z,98357.78
2018-11-13T22:23:54.804Z,98363.61
2018-11-13T22:26:24.050Z,98355.42
2018-11-13T22:28:53.562Z,98351.49
2018-11-13T22:31:22.595Z,98354.69
2018-11-13T22:33:51.769Z,98357.73
2018-11-13T22:36:21.016Z,98351.75
2018-11-13T22:38:50.256Z,98358.03
2018-11-13T22:41:19.507Z,98357.73
2018-11-13T22:43:48.840Z,98356.78
2018-11-13T22:46:18.222Z,98354.10
2018-11-13T22:48:47.519Z,98355.86
2018-11-13T22:51:16.710Z,98352.25
2018-11-13T22:53:46.600Z,98358.22
2018-11-13T22:56:15.884Z,98350.54
2018-11-13T22:58:45.092Z,98351.49
2018-11-13T23:01:15.062Z,98353.40
2018-11-13T23:03:44.855Z,98353.86
2018-11-13T23:06:14.765Z,98353.70
2018-11-13T23:08:44.788Z,98356.52
2018-11-13T23:11:15.617Z,98354.61
2018-11-13T23:13:45.589Z,98350.98
2018-11-13T23:16:15.457Z,98350.13
2018-11-13T23:18:45.266Z,98352.34
2018-11-13T23:21:15.307Z,98348.33
2018-11-13T23:23:45.432Z,98344.73
2018-11-13T23:26:15.366Z,98346.78
2018-11-13T23:28:45.371Z,98347.54
2018-11-13T23:31:15.575Z,98345.82
2018-11-13T23:33:45.848Z,98342.36
2018-11-13T23:36:15.881Z,98339.48
2018-11-13T23:38:45.912Z,98335.26
2018-11-13T23:41:15.856Z,98334.47
